createdAt,value
2019-05-20T00:00:29.728Z,13.23
2019-05-20T00:03:00.448Z,13.30
2019-05-20T00:05:31.055Z,13.30
2019-05-20T00:08:01.783Z,13.35
2019-05-20T00:10:31.851Z,13.43
2019-05-20T00:13:02.214Z,13.42
2019-05-20T00:15:32.649Z,13.40
2019-05-20T00:18:02.667Z,13.35
2019-05-20T00:20:33.126Z,13.35
2019-05-20T00:23:03.530Z,13.48
2019-05-20T00:25:33.473Z,13.48
2019-05-20T00:28:03.488Z,13.50
2019-05-20T00:30:33.507Z,13.50
2019-05-20T00:33:04.002Z,13.34
2019-05-20T00:35:34.091Z,13.34
2019-05-20T00:38:05.092Z,13.34
2019-05-20T00:40:35.416Z,13.40
2019-05-20T00:43:05.417Z,13.27
2019-05-20T00:45:35.511Z,13.21
2019-05-20T00:48:06.349Z,13.24
2019-05-20T00:50:36.397Z,13.24
2019-05-20T00:53:06.865Z,13.36
2019-05-20T00:55:38.685Z,13.36
2019-05-20T00:58:08.727Z,13.35
2019-05-20T01:00:39.477Z,13.38
2019-05-20T01:03:10.208Z,13.33
2019-05-20T01:05:40.666Z,13.33
2019-05-20T01:08:11.124Z,13.24
2019-05-20T01:10:41.495Z,13.27
2019-05-20T01:13:11.939Z,13.11
2019-05-20T01:15:42.351Z,13.22
2019-05-20T01:18:12.422Z,13.23
2019-05-20T01:20:42.914Z,13.23
2019-05-20T01:23:13.450Z,13.26
2019-05-20T01:25:43.862Z,13.32
2019-05-20T01:28:14.180Z,13.32
2019-05-20T01:30:44.354Z,13.26
2019-05-20T01:33:15.105Z,13.21
2019-05-20T01:35:45.607Z,13.22
2019-05-20T01:38:15.694Z,13.26
2019-05-20T01:40:45.682Z,13.12
2019-05-20T01:43:15.847Z,13.12
2019-05-20T01:45:46.246Z,13.16
2019-05-20T01:48:16.226Z,13.22
2019-05-20T01:50:46.290Z,13.20
2019-05-20T01:53:16.395Z,13.29
2019-05-20T01:55:46.531Z,13.33
2019-05-20T01:58:16.857Z,13.35
2019-05-20T02:00:46.861Z,13.35
2019-05-20T02:03:30.238Z,13.41
2019-05-20T02:05:49.039Z,13.47
2019-05-20T02:08:19.118Z,13.42
2019-05-20T02:10:49.204Z,13.35
2019-05-20T02:13:19.388Z,13.35
2019-05-20T02:15:56.404Z,13.35
2019-05-20T02:18:26.505Z,13.35
2019-05-20T02:20:57.563Z,13.37
2019-05-20T02:23:28.393Z,13.40
2019-05-20T02:25:58.420Z,13.41
2019-05-20T02:28:28.482Z,13.53
2019-05-20T02:30:58.570Z,13.53
2019-05-20T02:33:28.549Z,13.53
2019-05-20T02:35:58.574Z,13.54
2019-05-20T02:38:29.668Z,13.50
2019-05-20T02:40:59.681Z,13.50
2019-05-20T02:43:29.694Z,13.50
2019-05-20T02:46:00.177Z,13.58
2019-05-20T02:48:31.316Z,13.58
2019-05-20T02:51:01.307Z,13.56
2019-05-20T02:53:31.337Z,13.55
2019-05-20T02:56:01.894Z,13.55
2019-05-20T02:58:34.845Z,13.67
2019-05-20T03:01:04.918Z,13.67
2019-05-20T03:03:35.373Z,13.68
2019-05-20T03:06:05.998Z,13.72
2019-05-20T03:08:38.035Z,13.69
2019-05-20T03:11:08.098Z,13.68
2019-05-20T03:13:38.484Z,13.70
2019-05-20T03:16:08.843Z,13.72
2019-05-20T03:18:39.239Z,13.71
2019-05-20T03:21:09.374Z,13.73
2019-05-20T03:23:39.410Z,13.73
2019-05-20T03:26:09.842Z,13.67
2019-05-20T03:28:41.571Z,13.69
2019-05-20T03:31:11.731Z,13.73
2019-05-20T03:33:42.156Z,13.69
2019-05-20T03:36:12.194Z,13.72
2019-05-20T03:38:42.692Z,13.69
2019-05-20T03:41:13.072Z,13.69
2019-05-20T03:43:43.543Z,13.73
2019-05-20T03:46:14.040Z,13.79
2019-05-20T03:48:44.377Z,13.73
2019-05-20T03:51:15.074Z,13.77
2019-05-20T03:53:45.525Z,13.77
2019-05-20T03:56:15.777Z,13.79
2019-05-20T03:58:46.815Z,13.79
2019-05-20T04:01:16.835Z,13.85
2019-05-20T04:03:47.365Z,13.82
2019-05-20T04:06:18.050Z,13.76
2019-05-20T04:08:49.190Z,13.74
2019-05-20T04:11:19.559Z,13.74
2019-05-20T04:13:49.668Z,13.72
2019-05-20T04:16:23.337Z,13.73
2019-05-20T04:18:54.413Z,13.75
2019-05-20T04:21:24.996Z,13.69
2019-05-20T04:23:55.460Z,13.69
2019-05-20T04:26:25.649Z,13.65
2019-05-20T04:28:56.087Z,13.65
2019-05-20T04:31:28.069Z,13.67
2019-05-20T04:33:58.489Z,13.66
2019-05-20T04:36:28.691Z,13.66
2019-05-20T04:38:59.172Z,13.72
2019-05-20T04:41:29.471Z,13.74
2019-05-20T04:43:59.483Z,13.74
2019-05-20T04:46:29.530Z,13.73
2019-05-20T04:48:59.643Z,13.70
2019-05-20T04:51:29.706Z,13.73
2019-05-20T04:54:00.038Z,13.65
2019-05-20T04:56:30.129Z,13.66
2019-05-20T04:59:00.509Z,13.66
2019-05-20T05:01:31.070Z,13.67
2019-05-20T05:04:01.143Z,13.71
2019-05-20T05:06:31.361Z,13.71
2019-05-20T05:09:01.395Z,13.75
2019-05-20T05:11:31.766Z,13.75
2019-05-20T05:14:02.335Z,13.82
2019-05-20T05:16:32.393Z,13.82
2019-05-20T05:19:02.499Z,13.84
2019-05-20T05:21:32.896Z,13.84
2019-05-20T05:24:03.056Z,13.86
2019-05-20T05:26:33.094Z,13.86
2019-05-20T05:29:03.721Z,14.00
2019-05-20T05:31:34.152Z,14.00
2019-05-20T05:34:04.656Z,13.83
2019-05-20T05:36:34.799Z,13.58
2019-05-20T05:39:06.117Z,13.58
2019-05-20T05:41:36.679Z,13.74
2019-05-20T05:44:06.867Z,13.74
2019-05-20T05:46:37.482Z,13.83
2019-05-20T05:49:08.086Z,13.82
2019-05-20T05:51:38.444Z,13.75
2019-05-20T05:54:08.887Z,13.91
2019-05-20T05:56:39.163Z,13.99
2019-05-20T05:59:09.480Z,14.14
2019-05-20T06:01:41.008Z,14.19
2019-05-20T06:04:11.299Z,14.29
2019-05-20T06:06:41.889Z,14.46
2019-05-20T06:09:11.983Z,14.51
2019-05-20T06:11:42.102Z,14.57
2019-05-20T06:14:12.528Z,14.60
2019-05-20T06:16:43.035Z,14.53
2019-05-20T06:19:14.077Z,14.60
2019-05-20T06:21:44.570Z,14.75
2019-05-20T06:24:15.132Z,14.80
2019-05-20T06:26:45.473Z,14.79
2019-05-20T06:29:15.802Z,14.74
2019-05-20T06:31:46.160Z,14.91
2019-05-20T06:34:17.408Z,14.96
2019-05-20T06:36:49.846Z,15.05
2019-05-20T06:39:20.152Z,15.14
2019-05-20T06:41:50.376Z,15.22
2019-05-20T06:44:21.244Z,15.19
2019-05-20T06:46:51.878Z,15.25
2019-05-20T06:49:22.529Z,15.21
2019-05-20T06:51:52.810Z,15.30
2019-05-20T06:54:24.018Z,15.36
2019-05-20T06:56:54.957Z,15.56
2019-05-20T06:59:25.179Z,15.66
2019-05-20T07:01:56.135Z,15.71
2019-05-20T07:04:26.415Z,15.90
2019-05-20T07:06:56.646Z,15.99
2019-05-20T07:09:26.782Z,15.68
2019-05-20T07:11:57.551Z,15.63
2019-05-20T07:14:28.439Z,15.65
2019-05-20T07:16:58.542Z,15.63
2019-05-20T07:19:29.410Z,15.61
2019-05-20T07:21:59.981Z,15.66
2019-05-20T07:24:30.177Z,15.74
2019-05-20T07:27:00.257Z,15.71
2019-05-20T07:29:30.466Z,15.72
2019-05-20T07:32:00.493Z,15.69
2019-05-20T07:34:30.723Z,15.71
2019-05-20T07:37:03.695Z,15.77
2019-05-20T07:39:35.759Z,15.68
2019-05-20T07:42:05.839Z,15.71
2019-05-20T07:44:36.236Z,15.52
2019-05-20T07:47:06.676Z,15.61
2019-05-20T07:49:37.807Z,15.75
2019-05-20T07:52:08.380Z,15.55
2019-05-20T07:54:38.745Z,15.44
2019-05-20T07:57:10.454Z,15.26
2019-05-20T07:59:41.531Z,15.28
2019-05-20T08:02:11.654Z,15.57
2019-05-20T08:04:41.764Z,15.56
2019-05-20T08:07:27.628Z,15.51
2019-05-20T08:09:46.302Z,15.43
2019-05-20T08:12:16.483Z,15.49
2019-05-20T08:14:46.868Z,15.62
2019-05-20T08:17:17.574Z,15.64
2019-05-20T08:19:47.784Z,15.63
2019-05-20T08:22:17.895Z,15.78
2019-05-20T08:24:48.485Z,15.93
2019-05-20T08:27:19.340Z,15.84
2019-05-20T08:29:49.754Z,15.82
2019-05-20T08:32:19.832Z,15.87
2019-05-20T08:34:52.935Z,15.78
2019-05-20T08:37:23.849Z,16.03
2019-05-20T08:39:53.873Z,16.16
2019-05-20T08:42:24.097Z,16.09
2019-05-20T08:44:54.393Z,16.13
2019-05-20T08:47:24.468Z,15.85
2019-05-20T08:49:54.815Z,15.59
2019-05-20T08:52:25.615Z,15.79
2019-05-20T08:54:56.632Z,16.02
2019-05-20T08:57:27.211Z,15.88
2019-05-20T08:59:57.255Z,15.75
2019-05-20T09:02:27.515Z,16.04
2019-05-20T09:04:58.576Z,16.10
2019-05-20T09:07:28.700Z,16.02
2019-05-20T09:09:58.856Z,15.72
2019-05-20T09:12:29.079Z,15.84
2019-05-20T09:15:00.086Z,15.83
2019-05-20T09:17:30.998Z,15.92
2019-05-20T09:20:01.532Z,15.98
2019-05-20T09:22:33.868Z,16.10
2019-05-20T09:25:04.917Z,16.14
2019-05-20T09:27:35.139Z,16.09
2019-05-20T09:30:07.241Z,15.96
2019-05-20T09:32:37.634Z,15.98
2019-05-20T09:35:07.964Z,15.66
2019-05-20T09:37:38.543Z,15.65
2019-05-20T09:40:17.264Z,15.91
2019-05-20T09:42:48.327Z,16.17
2019-05-20T09:45:18.525Z,16.33
2019-05-20T09:47:48.690Z,16.52
2019-05-20T09:50:18.720Z,16.68
2019-05-20T09:52:48.745Z,16.79
2019-05-20T09:55:18.820Z,16.84
2019-05-20T09:57:48.912Z,16.70
2019-05-20T10:00:19.174Z,16.71
2019-05-20T10:02:49.224Z,16.70
2019-05-20T10:05:19.584Z,16.81
2019-05-20T10:07:50.688Z,16.93
2019-05-20T10:10:20.946Z,17.03
2019-05-20T10:12:51.183Z,17.10
2019-05-20T10:15:21.545Z,17.13
2019-05-20T10:17:51.739Z,17.17
2019-05-20T10:20:22.868Z,17.02
2019-05-20T10:22:53.309Z,17.10
2019-05-20T10:25:23.478Z,17.08
2019-05-20T10:27:57.360Z,17.13
2019-05-20T10:30:26.047Z,17.00
2019-05-20T10:32:56.381Z,16.92
2019-05-20T10:35:29.064Z,16.87
2019-05-20T10:37:59.269Z,16.99
2019-05-20T10:40:29.683Z,17.10
2019-05-20T10:43:00.098Z,17.33
2019-05-20T10:45:30.547Z,17.24
2019-05-20T10:48:01.059Z,17.21
2019-05-20T10:50:31.489Z,17.43
2019-05-20T10:53:01.875Z,17.16
2019-05-20T10:55:32.234Z,17.18
2019-05-20T10:58:02.692Z,17.22
2019-05-20T11:00:32.906Z,17.40
2019-05-20T11:03:04.219Z,17.64
2019-05-20T11:05:34.665Z,17.70
2019-05-20T11:08:05.111Z,17.59
2019-05-20T11:10:35.300Z,17.77
2019-05-20T11:13:05.727Z,17.66
2019-05-20T11:15:36.636Z,17.75
2019-05-20T11:18:07.014Z,17.88
2019-05-20T11:20:39.909Z,17.95
2019-05-20T11:23:09.487Z,18.07
2019-05-20T11:25:40.452Z,18.16
2019-05-20T11:28:11.922Z,18.21
2019-05-20T11:30:42.380Z,18.24
2019-05-20T11:33:12.999Z,17.75
2019-05-20T11:35:43.548Z,17.28
2019-05-20T11:38:14.310Z,17.15
2019-05-20T11:40:44.480Z,17.15
2019-05-20T11:43:14.575Z,17.25
2019-05-20T11:45:44.895Z,17.28
2019-05-20T11:48:14.944Z,17.39
2019-05-20T11:50:45.039Z,17.58
2019-05-20T11:53:15.158Z,17.57
2019-05-20T11:55:45.212Z,17.54
2019-05-20T11:58:16.902Z,17.49
2019-05-20T12:00:47.416Z,17.23
2019-05-20T12:03:17.450Z,17.37
2019-05-20T12:05:48.082Z,17.42
2019-05-20T12:08:18.647Z,17.64
2019-05-20T12:10:49.067Z,17.73
2019-05-20T12:13:20.514Z,17.80
2019-05-20T12:15:50.645Z,17.92
2019-05-20T12:18:21.044Z,18.08
2019-05-20T12:20:51.565Z,18.44
2019-05-20T12:23:21.734Z,19.11
2019-05-20T12:25:52.035Z,19.23
2019-05-20T12:28:22.211Z,19.38
2019-05-20T12:30:52.644Z,20.05
2019-05-20T12:33:22.678Z,20.39
2019-05-20T12:35:52.758Z,20.31
2019-05-20T12:38:23.241Z,20.67
2019-05-20T12:40:53.350Z,20.86
2019-05-20T12:43:23.400Z,20.92
2019-05-20T12:45:53.794Z,20.36
2019-05-20T12:48:27.060Z,20.51
2019-05-20T12:50:56.710Z,20.48
2019-05-20T12:53:27.261Z,20.86
2019-05-20T12:55:57.228Z,21.51
2019-05-20T12:58:27.880Z,22.32
2019-05-20T13:00:58.288Z,22.99
2019-05-20T13:03:28.677Z,21.61
2019-05-20T13:05:59.652Z,21.70
2019-05-20T13:08:30.075Z,21.50
2019-05-20T13:11:01.206Z,22.20
2019-05-20T13:13:31.329Z,21.98
2019-05-20T13:16:01.281Z,22.31
2019-05-20T13:18:31.770Z,22.94
2019-05-20T13:21:02.155Z,22.80
2019-05-20T13:23:34.292Z,23.34
2019-05-20T13:26:04.417Z,22.74
2019-05-20T13:28:34.961Z,22.80
2019-05-20T13:31:05.021Z,22.84
2019-05-20T13:33:37.532Z,23.74
2019-05-20T13:36:07.630Z,24.10
2019-05-20T13:38:37.880Z,24.12
2019-05-20T13:41:08.476Z,24.27
2019-05-20T13:43:39.123Z,24.30
2019-05-20T13:46:09.428Z,24.62
2019-05-20T13:48:39.592Z,24.48
2019-05-20T13:51:09.758Z,24.92
2019-05-20T13:53:40.195Z,25.14
2019-05-20T13:56:10.228Z,24.35
2019-05-20T13:58:40.725Z,24.06
2019-05-20T14:01:11.330Z,24.07
2019-05-20T14:03:41.433Z,23.48
2019-05-20T14:06:11.729Z,22.92
2019-05-20T14:08:41.787Z,23.54
2019-05-20T14:11:11.931Z,24.22
2019-05-20T14:13:42.321Z,24.40
2019-05-20T14:16:12.528Z,24.02
2019-05-20T14:18:43.551Z,24.27
2019-05-20T14:21:13.881Z,24.42
2019-05-20T14:23:45.208Z,24.41
2019-05-20T14:26:15.875Z,24.16
2019-05-20T14:28:46.191Z,24.39
2019-05-20T14:31:16.266Z,25.13
2019-05-20T14:33:46.342Z,26.14
2019-05-20T14:36:37.795Z,26.21
2019-05-20T14:38:48.935Z,26.09
2019-05-20T14:41:21.839Z,25.21
2019-05-20T14:43:50.847Z,26.05
2019-05-20T14:46:21.526Z,25.77
2019-05-20T14:48:51.555Z,26.19
2019-05-20T14:51:22.003Z,26.14
2019-05-20T14:53:52.084Z,25.96
2019-05-20T14:56:22.288Z,25.55
2019-05-20T14:58:52.465Z,25.77
2019-05-20T15:01:23.481Z,25.71
2019-05-20T15:03:53.522Z,25.22
2019-05-20T15:06:23.623Z,25.09
2019-05-20T15:08:53.799Z,25.72
2019-05-20T15:11:37.173Z,25.65
2019-05-20T15:14:00.105Z,26.34
2019-05-20T15:16:29.111Z,26.64
2019-05-20T15:18:59.668Z,26.64
2019-05-20T15:21:30.209Z,26.27
2019-05-20T15:24:01.120Z,25.90
2019-05-20T15:26:31.298Z,25.93
2019-05-20T15:29:01.364Z,26.30
2019-05-20T15:31:31.592Z,26.91
2019-05-20T15:34:02.449Z,26.45
2019-05-20T15:36:32.891Z,25.40
2019-05-20T15:39:03.081Z,25.01
2019-05-20T15:41:34.251Z,24.65
2019-05-20T15:44:04.527Z,24.82
2019-05-20T15:46:35.492Z,25.80
2019-05-20T15:49:06.442Z,25.66
2019-05-20T15:51:36.937Z,25.68
2019-05-20T15:54:07.133Z,26.05
2019-05-20T15:56:37.513Z,26.12
2019-05-20T15:59:08.046Z,26.39
2019-05-20T16:01:38.358Z,26.35
2019-05-20T16:04:08.835Z,25.72
2019-05-20T16:06:38.856Z,25.52
2019-05-20T16:09:09.755Z,25.20
2019-05-20T16:11:39.941Z,25.48
2019-05-20T16:14:10.067Z,25.55
2019-05-20T16:16:40.189Z,25.83
2019-05-20T16:19:10.543Z,25.86
2019-05-20T16:21:40.838Z,25.05
2019-05-20T16:24:10.841Z,24.56
2019-05-20T16:26:41.501Z,23.91
2019-05-20T16:29:11.643Z,24.01
2019-05-20T16:31:42.134Z,24.86
2019-05-20T16:34:12.342Z,25.68
2019-05-20T16:36:42.554Z,25.94
2019-05-20T16:39:13.969Z,26.08
2019-05-20T16:41:45.082Z,25.81
2019-05-20T16:44:15.818Z,24.36
2019-05-20T16:46:45.811Z,23.43
2019-05-20T16:49:16.025Z,23.03
2019-05-20T16:51:46.395Z,22.49
2019-05-20T16:54:16.396Z,22.29
2019-05-20T16:56:47.029Z,21.87
2019-05-20T16:59:17.449Z,21.79
2019-05-20T17:01:47.806Z,21.97
2019-05-20T17:04:18.573Z,21.97
2019-05-20T17:06:48.748Z,21.94
2019-05-20T17:09:19.182Z,21.98
2019-05-20T17:11:52.748Z,21.94
2019-05-20T17:14:23.162Z,21.81
2019-05-20T17:16:53.392Z,21.59
2019-05-20T17:19:26.621Z,21.54
2019-05-20T17:21:57.101Z,21.49
2019-05-20T17:24:27.313Z,21.52
2019-05-20T17:26:57.564Z,21.40
2019-05-20T17:29:28.549Z,20.87
2019-05-20T17:31:58.943Z,20.65
2019-05-20T17:34:29.052Z,20.52
2019-05-20T17:36:59.102Z,20.51
2019-05-20T17:39:29.169Z,20.43
2019-05-20T17:42:00.312Z,20.40
2019-05-20T17:44:31.223Z,20.46
2019-05-20T17:47:01.259Z,20.49
2019-05-20T17:49:31.303Z,20.46
2019-05-20T17:52:01.548Z,20.45
2019-05-20T17:54:31.651Z,20.68
2019-05-20T17:57:02.204Z,21.01
2019-05-20T17:59:32.300Z,21.16
2019-05-20T18:02:04.626Z,21.53
2019-05-20T18:04:35.012Z,21.59
2019-05-20T18:07:05.129Z,21.95
2019-05-20T18:09:37.382Z,22.18
2019-05-20T18:12:07.442Z,22.23
2019-05-20T18:14:39.260Z,22.08
2019-05-20T18:17:09.727Z,21.92
2019-05-20T18:19:40.338Z,21.71
2019-05-20T18:22:10.402Z,21.46
2019-05-20T18:24:40.558Z,21.10
2019-05-20T18:27:13.969Z,20.75
2019-05-20T18:29:44.407Z,20.51
2019-05-20T18:32:14.679Z,20.45
2019-05-20T18:34:46.731Z,20.27
2019-05-20T18:37:16.831Z,20.16
2019-05-20T18:39:47.518Z,20.09
2019-05-20T18:42:17.779Z,20.01
2019-05-20T18:44:48.872Z,19.91
2019-05-20T18:47:19.353Z,19.94
2019-05-20T18:49:50.112Z,20.01
2019-05-20T18:52:20.708Z,20.06
2019-05-20T18:54:50.708Z,20.15
2019-05-20T18:57:21.548Z,20.05
2019-05-20T18:59:51.784Z,19.91
2019-05-20T19:02:21.950Z,19.83
2019-05-20T19:04:52.243Z,19.74
2019-05-20T19:07:22.305Z,19.70
2019-05-20T19:09:52.430Z,19.53
2019-05-20T19:12:23.799Z,19.44
2019-05-20T19:14:57.142Z,19.38
2019-05-20T19:17:28.858Z,19.33
2019-05-20T19:19:58.915Z,19.33
2019-05-20T19:22:28.929Z,19.24
2019-05-20T19:24:59.091Z,19.10
2019-05-20T19:27:29.467Z,19.04
2019-05-20T19:29:59.613Z,18.99
2019-05-20T19:32:29.929Z,18.94
2019-05-20T19:35:00.547Z,18.88
2019-05-20T19:37:30.786Z,18.82
2019-05-20T19:40:01.355Z,18.76
2019-05-20T19:42:31.832Z,18.75
2019-05-20T19:45:02.159Z,18.75
2019-05-20T19:47:33.211Z,18.70
2019-05-20T19:50:03.784Z,18.69
2019-05-20T19:52:34.972Z,18.64
2019-05-20T19:55:06.032Z,18.57
2019-05-20T19:57:36.794Z,18.52
2019-05-20T20:00:10.303Z,18.51
2019-05-20T20:02:41.239Z,18.47
2019-05-20T20:05:13.784Z,18.40
2019-05-20T20:07:43.913Z,18.38
2019-05-20T20:10:14.944Z,18.41
2019-05-20T20:12:45.909Z,18.35
2019-05-20T20:15:18.506Z,18.36
2019-05-20T20:17:49.493Z,18.34
2019-05-20T20:20:20.291Z,18.33
2019-05-20T20:22:52.537Z,18.38
2019-05-20T20:25:23.571Z,18.35
2019-05-20T20:27:56.680Z,18.34
2019-05-20T20:30:27.226Z,18.30
2019-05-20T20:32:59.275Z,18.28
2019-05-20T20:35:38.030Z,18.29
2019-05-20T20:38:03.807Z,18.29
2019-05-20T20:40:34.621Z,18.28
2019-05-20T20:43:08.128Z,18.27
2019-05-20T20:45:41.570Z,18.27
2019-05-20T20:48:12.163Z,18.27
2019-05-20T20:50:42.673Z,18.29
2019-05-20T20:53:13.235Z,18.26
2019-05-20T20:55:43.465Z,18.27
2019-05-20T20:58:14.728Z,18.29
2019-05-20T21:00:45.175Z,18.33
2019-05-20T21:03:15.355Z,18.30
2019-05-20T21:05:45.823Z,18.29
2019-05-20T21:08:16.003Z,18.29
2019-05-20T21:10:46.887Z,18.30
2019-05-20T21:13:17.842Z,18.28
2019-05-20T21:15:48.332Z,18.28
2019-05-20T21:18:18.682Z,18.25
2019-05-20T21:20:50.097Z,18.23
2019-05-20T21:23:21.138Z,18.25
2019-05-20T21:25:51.453Z,18.27
2019-05-20T21:28:21.573Z,18.27
2019-05-20T21:30:51.655Z,18.26
2019-05-20T21:33:21.804Z,18.26
2019-05-20T21:35:52.075Z,18.28
2019-05-20T21:38:22.581Z,18.35
2019-05-20T21:40:53.821Z,18.35
2019-05-20T21:43:25.354Z,18.35
2019-05-20T21:45:55.766Z,18.35
2019-05-20T21:48:26.235Z,18.34
2019-05-20T21:50:56.310Z,18.33
2019-05-20T21:53:26.853Z,18.35
2019-05-20T21:55:57.405Z,18.31
2019-05-20T21:58:28.445Z,18.29
2019-05-20T22:00:58.480Z,18.27
2019-05-20T22:03:28.895Z,18.24
2019-05-20T22:06:01.695Z,18.22
2019-05-20T22:08:32.711Z,18.20
2019-05-20T22:11:03.189Z,18.19
2019-05-20T22:13:33.285Z,18.15
2019-05-20T22:16:03.913Z,18.14
2019-05-20T22:18:36.785Z,18.13
2019-05-20T22:21:09.425Z,18.12
2019-05-20T22:23:53.936Z,18.08
2019-05-20T22:26:24.100Z,18.09
2019-05-20T22:28:54.583Z,18.07
2019-05-20T22:31:25.034Z,18.07
2019-05-20T22:33:57.037Z,18.05
2019-05-20T22:36:27.238Z,18.07
2019-05-20T22:38:57.301Z,18.07
2019-05-20T22:41:27.829Z,18.08
2019-05-20T22:43:58.369Z,18.10
2019-05-20T22:46:28.459Z,18.15
2019-05-20T22:48:58.638Z,18.14
2019-05-20T22:51:29.097Z,18.16
2019-05-20T22:54:01.562Z,18.16
2019-05-20T22:56:32.219Z,18.16
2019-05-20T22:59:02.362Z,18.15
2019-05-20T23:01:32.438Z,18.11
2019-05-20T23:04:03.049Z,18.10
2019-05-20T23:06:34.343Z,18.09
2019-05-20T23:09:07.008Z,18.11
2019-05-20T23:11:37.018Z,18.09
2019-05-20T23:14:07.045Z,18.10
2019-05-20T23:16:37.722Z,18.09
2019-05-20T23:19:08.458Z,18.08
2019-05-20T23:21:38.551Z,18.04
2019-05-20T23:24:08.877Z,18.03
2019-05-20T23:26:39.258Z,17.99
2019-05-20T23:29:09.301Z,17.93
2019-05-20T23:31:39.491Z,17.84
2019-05-20T23:34:13.102Z,17.79
2019-05-20T23:36:43.201Z,17.77
2019-05-20T23:39:13.233Z,17.71
2019-05-20T23:41:45.928Z,17.67
2019-05-20T23:44:15.996Z,17.60
2019-05-20T23:46:46.144Z,17.57
2019-05-20T23:49:16.279Z,17.51
2019-05-20T23:51:46.306Z,17.51
2019-05-20T23:54:16.988Z,17.48
2019-05-20T23:56:47.073Z,17.47
2019-05-20T23:59:17.471Z,17.46
